sensor_id;sensor_type;location;lat;lon;timestamp;temperature;humidity
40808;DHT22;26523;52.504;13.498;2023-10-31T00:01:12;11.50;99.90
40808;DHT22;26523;52.504;13.498;2023-10-31T00:03:37;11.50;99.90
40808;DHT22;26523;52.504;13.498;2023-10-31T00:06:06;11.40;99.90
40808;DHT22;26523;52.504;13.498;2023-10-31T00:08:32;11.40;99.90
40808;DHT22;26523;52.504;13.498;2023-10-31T00:10:58;11.40;99.90
40808;DHT22;26523;52.504;13.498;2023-10-31T00:13:24;11.40;99.90
40808;DHT22;26523;52.504;13.498;2023-10-31T00:15:50;11.40;99.90
40808;DHT22;26523;52.504;13.498;2023-10-31T00:18:20;11.40;99.90
40808;DHT22;26523;52.504;13.498;2023-10-31T00:20:47;11.40;99.90
40808;DHT22;26523;52.504;13.498;2023-10-31T00:23:15;11.40;99.90
40808;DHT22;26523;52.504;13.498;2023-10-31T00:25:41;11.40;99.90
40808;DHT22;26523;52.504;13.498;2023-10-31T00:28:06;11.40;99.90
40808;DHT22;26523;52.504;13.498;2023-10-31T00:30:34;11.40;99.90
40808;DHT22;26523;52.504;13.498;2023-10-31T00:33:01;11.30;99.90
40808;DHT22;26523;52.504;13.498;2023-10-31T00:35:28;11.40;99.90
40808;DHT22;26523;52.504;13.498;2023-10-31T00:37:57;11.30;99.90
40808;DHT22;26523;52.504;13.498;2023-10-31T00:40:22;11.30;99.90
40808;DHT22;26523;52.504;13.498;2023-10-31T00:42:49;11.30;99.90
40808;DHT22;26523;52.504;13.498;2023-10-31T00:45:16;11.20;99.90
40808;DHT22;26523;52.504;13.498;2023-10-31T00:47:42;11.20;99.90
40808;DHT22;26523;52.504;13.498;2023-10-31T00:50:08;11.20;99.90
40808;DHT22;26523;52.504;13.498;2023-10-31T00:52:35;11.20;99.90
40808;DHT22;26523;52.504;13.498;2023-10-31T00:55:00;11.20;99.90
40808;DHT22;26523;52.504;13.498;2023-10-31T00:57:26;11.20;99.90
40808;DHT22;26523;52.504;13.498;2023-10-31T00:59:52;11.20;99.90
40808;DHT22;26523;52.504;13.498;2023-10-31T01:02:21;11.20;99.90
40808;DHT22;26523;52.504;13.498;2023-10-31T01:04:46;11.20;99.90
40808;DHT22;26523;52.504;13.498;2023-10-31T01:07:12;11.20;99.90
40808;DHT22;26523;52.504;13.498;2023-10-31T01:09:40;11.20;99.90
40808;DHT22;26523;52.504;13.498;2023-10-31T01:12:06;11.20;99.90
40808;DHT22;26523;52.504;13.498;2023-10-31T01:14:31;11.20;99.90
40808;DHT22;26523;52.504;13.498;2023-10-31T01:16:57;11.20;99.90
40808;DHT22;26523;52.504;13.498;2023-10-31T01:19:22;11.20;99.90
40808;DHT22;26523;52.504;13.498;2023-10-31T01:21:48;11.10;99.90
40808;DHT22;26523;52.504;13.498;2023-10-31T01:24:15;11.10;99.90
40808;DHT22;26523;52.504;13.498;2023-10-31T01:26:42;11.10;99.90
40808;DHT22;26523;52.504;13.498;2023-10-31T01:29:08;11.10;99.90
40808;DHT22;26523;52.504;13.498;2023-10-31T01:31:33;11.00;99.90
40808;DHT22;26523;52.504;13.498;2023-10-31T01:34:02;11.00;99.90
40808;DHT22;26523;52.504;13.498;2023-10-31T01:36:27;11.00;99.90
40808;DHT22;26523;52.504;13.498;2023-10-31T01:38:53;11.10;99.90
40808;DHT22;26523;52.504;13.498;2023-10-31T01:41:20;11.10;99.90
40808;DHT22;26523;52.504;13.498;2023-10-31T01:43:46;11.10;99.90
40808;DHT22;26523;52.504;13.498;2023-10-31T01:46:14;11.10;99.90
40808;DHT22;26523;52.504;13.498;2023-10-31T01:48:40;11.10;99.90
40808;DHT22;26523;52.504;13.498;2023-10-31T01:51:06;11.00;99.90
40808;DHT22;26523;52.504;13.498;2023-10-31T01:53:32;11.10;99.90
40808;DHT22;26523;52.504;13.498;2023-10-31T01:56:00;11.00;99.90
40808;DHT22;26523;52.504;13.498;2023-10-31T01:58:36;11.00;99.90
40808;DHT22;26523;52.504;13.498;2023-10-31T02:01:04;10.90;99.90
40808;DHT22;26523;52.504;13.498;2023-10-31T02:03:31;11.00;99.90
40808;DHT22;26523;52.504;13.498;2023-10-31T02:05:57;11.00;99.90
40808;DHT22;26523;52.504;13.498;2023-10-31T02:08:24;11.00;99.90
40808;DHT22;26523;52.504;13.498;2023-10-31T02:10:50;11.00;99.90
40808;DHT22;26523;52.504;13.498;2023-10-31T02:13:19;11.00;99.90
40808;DHT22;26523;52.504;13.498;2023-10-31T02:15:46;11.00;99.90
40808;DHT22;26523;52.504;13.498;2023-10-31T02:18:12;10.90;99.90
40808;DHT22;26523;52.504;13.498;2023-10-31T02:20:38;10.90;99.90
40808;DHT22;26523;52.504;13.498;2023-10-31T02:23:04;10.90;99.90
40808;DHT22;26523;52.504;13.498;2023-10-31T02:25:30;10.90;99.90
40808;DHT22;26523;52.504;13.498;2023-10-31T02:27:56;10.80;99.90
40808;DHT22;26523;52.504;13.498;2023-10-31T02:30:22;10.80;99.90
40808;DHT22;26523;52.504;13.498;2023-10-31T02:32:47;10.80;99.90
40808;DHT22;26523;52.504;13.498;2023-10-31T02:35:15;10.80;99.90
40808;DHT22;26523;52.504;13.498;2023-10-31T02:37:41;10.80;99.90
40808;DHT22;26523;52.504;13.498;2023-10-31T02:40:07;10.80;99.90
40808;DHT22;26523;52.504;13.498;2023-10-31T02:42:34;10.80;99.90
40808;DHT22;26523;52.504;13.498;2023-10-31T02:45:01;10.80;99.90
40808;DHT22;26523;52.504;13.498;2023-10-31T02:47:27;10.80;99.90
40808;DHT22;26523;52.504;13.498;2023-10-31T02:49:54;10.80;99.90
40808;DHT22;26523;52.504;13.498;2023-10-31T02:52:19;10.80;99.90
40808;DHT22;26523;52.504;13.498;2023-10-31T02:54:48;10.80;99.90
40808;DHT22;26523;52.504;13.498;2023-10-31T02:57:16;10.80;99.90
40808;DHT22;26523;52.504;13.498;2023-10-31T02:59:41;10.80;99.90
40808;DHT22;26523;52.504;13.498;2023-10-31T03:02:08;10.80;99.90
40808;DHT22;26523;52.504;13.498;2023-10-31T03:04:33;10.80;99.90
40808;DHT22;26523;52.504;13.498;2023-10-31T03:07:00;10.80;99.90
40808;DHT22;26523;52.504;13.498;2023-10-31T03:09:25;10.80;99.90
40808;DHT22;26523;52.504;13.498;2023-10-31T03:11:52;10.70;99.90
40808;DHT22;26523;52.504;13.498;2023-10-31T03:14:18;10.70;99.90
40808;DHT22;26523;52.504;13.498;2023-10-31T03:16:45;10.70;99.90
40808;DHT22;26523;52.504;13.498;2023-10-31T03:19:10;10.80;99.90
40808;DHT22;26523;52.504;13.498;2023-10-31T03:21:37;10.80;99.90
40808;DHT22;26523;52.504;13.498;2023-10-31T03:24:03;10.80;99.90
40808;DHT22;26523;52.504;13.498;2023-10-31T03:26:29;10.80;99.90
40808;DHT22;26523;52.504;13.498;2023-10-31T03:28:55;10.80;99.90
40808;DHT22;26523;52.504;13.498;2023-10-31T03:31:23;10.80;99.90
40808;DHT22;26523;52.504;13.498;2023-10-31T03:33:50;10.80;99.90
40808;DHT22;26523;52.504;13.498;2023-10-31T03:36:18;10.90;99.90
40808;DHT22;26523;52.504;13.498;2023-10-31T03:38:44;10.90;99.90
40808;DHT22;26523;52.504;13.498;2023-10-31T03:41:10;10.90;99.90
40808;DHT22;26523;52.504;13.498;2023-10-31T03:43:36;10.90;99.90
40808;DHT22;26523;52.504;13.498;2023-10-31T03:46:02;10.80;99.90
40808;DHT22;26523;52.504;13.498;2023-10-31T03:48:27;10.90;99.90
40808;DHT22;26523;52.504;13.498;2023-10-31T03:50:54;10.90;99.90
40808;DHT22;26523;52.504;13.498;2023-10-31T03:53:20;10.90;99.90
40808;DHT22;26523;52.504;13.498;2023-10-31T03:55:46;10.90;99.90
40808;DHT22;26523;52.504;13.498;2023-10-31T03:58:11;10.90;99.90
40808;DHT22;26523;52.504;13.498;2023-10-31T04:00:39;11.00;99.90
40808;DHT22;26523;52.504;13.498;2023-10-31T04:03:07;10.90;99.90
40808;DHT22;26523;52.504;13.498;2023-10-31T04:05:33;11.00;99.90
40808;DHT22;26523;52.504;13.498;2023-10-31T04:07:58;10.90;99.90
40808;DHT22;26523;52.504;13.498;2023-10-31T04:10:26;11.00;99.90
40808;DHT22;26523;52.504;13.498;2023-10-31T04:12:52;11.00;99.90
40808;DHT22;26523;52.504;13.498;2023-10-31T04:15:18;11.00;99.90
40808;DHT22;26523;52.504;13.498;2023-10-31T04:17:44;10.90;99.90
40808;DHT22;26523;52.504;13.498;2023-10-31T04:20:10;11.00;99.90
40808;DHT22;26523;52.504;13.498;2023-10-31T04:22:35;11.00;99.90
40808;DHT22;26523;52.504;13.498;2023-10-31T04:25:02;11.00;99.90
40808;DHT22;26523;52.504;13.498;2023-10-31T04:27:28;11.00;99.90
40808;DHT22;26523;52.504;13.498;2023-10-31T04:29:54;11.00;99.90
40808;DHT22;26523;52.504;13.498;2023-10-31T04:32:22;11.00;99.90
40808;DHT22;26523;52.504;13.498;2023-10-31T04:34:49;11.00;99.90
40808;DHT22;26523;52.504;13.498;2023-10-31T04:37:15;11.00;99.90
40808;DHT22;26523;52.504;13.498;2023-10-31T04:39:40;11.10;99.90
40808;DHT22;26523;52.504;13.498;2023-10-31T04:42:07;11.00;99.90
40808;DHT22;26523;52.504;13.498;2023-10-31T04:44:32;11.00;99.90
40808;DHT22;26523;52.504;13.498;2023-10-31T04:46:58;11.10;99.90
40808;DHT22;26523;52.504;13.498;2023-10-31T04:49:24;11.10;99.90
40808;DHT22;26523;52.504;13.498;2023-10-31T04:51:50;11.10;99.90
40808;DHT22;26523;52.504;13.498;2023-10-31T04:54:16;11.20;99.90
40808;DHT22;26523;52.504;13.498;2023-10-31T04:56:41;11.10;99.90
40808;DHT22;26523;52.504;13.498;2023-10-31T04:59:07;11.10;99.90
40808;DHT22;26523;52.504;13.498;2023-10-31T05:01:33;11.10;99.90
40808;DHT22;26523;52.504;13.498;2023-10-31T05:03:59;11.10;99.90
40808;DHT22;26523;52.504;13.498;2023-10-31T05:06:25;11.10;99.90
40808;DHT22;26523;52.504;13.498;2023-10-31T05:08:51;11.10;99.90
40808;DHT22;26523;52.504;13.498;2023-10-31T05:11:17;11.20;99.90
40808;DHT22;26523;52.504;13.498;2023-10-31T05:13:47;11.20;99.90
40808;DHT22;26523;52.504;13.498;2023-10-31T05:16:13;11.30;99.90
40808;DHT22;26523;52.504;13.498;2023-10-31T05:18:38;11.30;99.90
40808;DHT22;26523;52.504;13.498;2023-10-31T05:21:04;11.30;99.90
40808;DHT22;26523;52.504;13.498;2023-10-31T05:23:30;11.30;99.90
40808;DHT22;26523;52.504;13.498;2023-10-31T05:25:56;11.30;99.90
40808;DHT22;26523;52.504;13.498;2023-10-31T05:28:23;11.40;99.90
40808;DHT22;26523;52.504;13.498;2023-10-31T05:30:53;11.30;99.90
40808;DHT22;26523;52.504;13.498;2023-10-31T05:33:20;11.20;99.90
40808;DHT22;26523;52.504;13.498;2023-10-31T05:35:45;11.40;99.90
40808;DHT22;26523;52.504;13.498;2023-10-31T05:38:11;11.40;99.90
40808;DHT22;26523;52.504;13.498;2023-10-31T05:40:37;11.40;99.90
40808;DHT22;26523;52.504;13.498;2023-10-31T05:43:03;11.40;99.90
40808;DHT22;26523;52.504;13.498;2023-10-31T05:45:30;11.40;99.90
40808;DHT22;26523;52.504;13.498;2023-10-31T05:47:56;11.40;99.90
40808;DHT22;26523;52.504;13.498;2023-10-31T05:50:23;11.40;99.90
40808;DHT22;26523;52.504;13.498;2023-10-31T05:52:48;11.50;99.90
40808;DHT22;26523;52.504;13.498;2023-10-31T05:55:15;11.40;99.90
40808;DHT22;26523;52.504;13.498;2023-10-31T05:57:41;11.50;99.90
40808;DHT22;26523;52.504;13.498;2023-10-31T06:00:09;11.50;99.90
40808;DHT22;26523;52.504;13.498;2023-10-31T06:02:35;11.50;99.90
40808;DHT22;26523;52.504;13.498;2023-10-31T06:05:01;11.50;99.90
40808;DHT22;26523;52.504;13.498;2023-10-31T06:07:26;11.50;99.90
40808;DHT22;26523;52.504;13.498;2023-10-31T06:09:53;11.50;99.90
40808;DHT22;26523;52.504;13.498;2023-10-31T06:12:19;11.50;99.90
40808;DHT22;26523;52.504;13.498;2023-10-31T06:14:45;11.50;99.90
40808;DHT22;26523;52.504;13.498;2023-10-31T06:17:10;11.50;99.90
40808;DHT22;26523;52.504;13.498;2023-10-31T06:19:37;11.60;99.90
40808;DHT22;26523;52.504;13.498;2023-10-31T06:22:03;11.60;99.90
40808;DHT22;26523;52.504;13.498;2023-10-31T06:24:29;11.60;99.90
40808;DHT22;26523;52.504;13.498;2023-10-31T06:26:55;11.60;99.90
40808;DHT22;26523;52.504;13.498;2023-10-31T06:29:23;11.60;99.90
40808;DHT22;26523;52.504;13.498;2023-10-31T06:31:49;11.60;99.90
40808;DHT22;26523;52.504;13.498;2023-10-31T06:34:15;11.60;99.90
40808;DHT22;26523;52.504;13.498;2023-10-31T06:36:40;11.60;99.90
40808;DHT22;26523;52.504;13.498;2023-10-31T06:39:06;11.60;99.90
40808;DHT22;26523;52.504;13.498;2023-10-31T06:41:33;11.60;99.90
40808;DHT22;26523;52.504;13.498;2023-10-31T06:43:58;11.60;99.90
40808;DHT22;26523;52.504;13.498;2023-10-31T06:46:24;11.70;99.90
40808;DHT22;26523;52.504;13.498;2023-10-31T06:48:49;11.70;99.90
40808;DHT22;26523;52.504;13.498;2023-10-31T06:51:17;11.80;99.90
40808;DHT22;26523;52.504;13.498;2023-10-31T06:53:43;11.80;99.90
40808;DHT22;26523;52.504;13.498;2023-10-31T06:56:08;11.80;99.90
40808;DHT22;26523;52.504;13.498;2023-10-31T06:58:34;11.80;99.90
40808;DHT22;26523;52.504;13.498;2023-10-31T07:01:00;11.80;99.90
40808;DHT22;26523;52.504;13.498;2023-10-31T07:03:26;11.90;99.90
40808;DHT22;26523;52.504;13.498;2023-10-31T07:05:52;11.90;99.90
40808;DHT22;26523;52.504;13.498;2023-10-31T07:08:18;11.90;99.90
40808;DHT22;26523;52.504;13.498;2023-10-31T07:10:43;11.90;99.90
40808;DHT22;26523;52.504;13.498;2023-10-31T07:13:09;12.00;99.90
40808;DHT22;26523;52.504;13.498;2023-10-31T07:15:35;11.90;99.90
40808;DHT22;26523;52.504;13.498;2023-10-31T07:18:05;12.00;99.90
40808;DHT22;26523;52.504;13.498;2023-10-31T07:20:33;12.00;99.90
40808;DHT22;26523;52.504;13.498;2023-10-31T07:22:58;12.10;99.90
40808;DHT22;26523;52.504;13.498;2023-10-31T07:25:26;12.10;99.90
40808;DHT22;26523;52.504;13.498;2023-10-31T07:27:51;12.10;99.90
40808;DHT22;26523;52.504;13.498;2023-10-31T07:30:17;12.10;99.90
40808;DHT22;26523;52.504;13.498;2023-10-31T07:32:43;12.10;99.90
40808;DHT22;26523;52.504;13.498;2023-10-31T07:35:08;12.10;99.90
40808;DHT22;26523;52.504;13.498;2023-10-31T07:37:34;12.10;99.90
40808;DHT22;26523;52.504;13.498;2023-10-31T07:40:02;12.10;99.90
40808;DHT22;26523;52.504;13.498;2023-10-31T07:42:29;12.10;99.90
40808;DHT22;26523;52.504;13.498;2023-10-31T07:44:55;12.20;99.90
40808;DHT22;26523;52.504;13.498;2023-10-31T07:47:21;12.20;99.90
40808;DHT22;26523;52.504;13.498;2023-10-31T07:49:47;12.20;99.90
40808;DHT22;26523;52.504;13.498;2023-10-31T07:52:14;12.30;99.90
40808;DHT22;26523;52.504;13.498;2023-10-31T07:54:39;12.30;99.90
40808;DHT22;26523;52.504;13.498;2023-10-31T07:57:08;12.30;99.90
40808;DHT22;26523;52.504;13.498;2023-10-31T07:59:34;12.30;99.90
40808;DHT22;26523;52.504;13.498;2023-10-31T08:02:00;12.20;99.90
40808;DHT22;26523;52.504;13.498;2023-10-31T08:04:25;12.20;99.90
40808;DHT22;26523;52.504;13.498;2023-10-31T08:06:51;12.20;99.90
40808;DHT22;26523;52.504;13.498;2023-10-31T08:09:17;12.20;99.90
40808;DHT22;26523;52.504;13.498;2023-10-31T08:11:44;12.20;99.90
40808;DHT22;26523;52.504;13.498;2023-10-31T08:14:09;12.20;99.90
40808;DHT22;26523;52.504;13.498;2023-10-31T08:16:35;12.30;99.90
40808;DHT22;26523;52.504;13.498;2023-10-31T08:19:02;12.40;99.90
40808;DHT22;26523;52.504;13.498;2023-10-31T08:21:27;12.40;99.90
40808;DHT22;26523;52.504;13.498;2023-10-31T08:23:59;12.50;99.90
40808;DHT22;26523;52.504;13.498;2023-10-31T08:26:25;12.50;99.90
40808;DHT22;26523;52.504;13.498;2023-10-31T08:28:50;12.50;99.90
40808;DHT22;26523;52.504;13.498;2023-10-31T08:31:17;12.60;99.90
40808;DHT22;26523;52.504;13.498;2023-10-31T08:33:42;12.60;99.90
40808;DHT22;26523;52.504;13.498;2023-10-31T08:36:08;12.50;99.90
40808;DHT22;26523;52.504;13.498;2023-10-31T08:38:34;12.50;99.90
40808;DHT22;26523;52.504;13.498;2023-10-31T08:41:00;12.60;99.90
40808;DHT22;26523;52.504;13.498;2023-10-31T08:43:25;12.60;99.90
40808;DHT22;26523;52.504;13.498;2023-10-31T08:45:51;12.60;99.90
40808;DHT22;26523;52.504;13.498;2023-10-31T08:48:17;12.80;99.90
40808;DHT22;26523;52.504;13.498;2023-10-31T08:50:43;13.00;99.90
40808;DHT22;26523;52.504;13.498;2023-10-31T08:53:10;13.10;99.90
40808;DHT22;26523;52.504;13.498;2023-10-31T08:55:35;13.10;99.90
40808;DHT22;26523;52.504;13.498;2023-10-31T08:58:01;13.10;99.90
40808;DHT22;26523;52.504;13.498;2023-10-31T09:00:27;13.10;99.90
40808;DHT22;26523;52.504;13.498;2023-10-31T09:02:54;13.00;99.90
40808;DHT22;26523;52.504;13.498;2023-10-31T09:05:20;13.00;99.90
40808;DHT22;26523;52.504;13.498;2023-10-31T09:07:45;13.00;99.90
40808;DHT22;26523;52.504;13.498;2023-10-31T09:10:12;13.00;99.90
40808;DHT22;26523;52.504;13.498;2023-10-31T09:12:37;12.90;99.90
40808;DHT22;26523;52.504;13.498;2023-10-31T09:15:04;12.90;99.90
40808;DHT22;26523;52.504;13.498;2023-10-31T09:17:29;13.00;99.90
40808;DHT22;26523;52.504;13.498;2023-10-31T09:19:55;13.00;99.90
40808;DHT22;26523;52.504;13.498;2023-10-31T09:22:21;13.20;99.90
40808;DHT22;26523;52.504;13.498;2023-10-31T09:24:46;13.20;99.90
40808;DHT22;26523;52.504;13.498;2023-10-31T09:27:12;13.30;99.90
40808;DHT22;26523;52.504;13.498;2023-10-31T09:29:38;13.30;99.90
40808;DHT22;26523;52.504;13.498;2023-10-31T09:32:04;13.30;99.90
40808;DHT22;26523;52.504;13.498;2023-10-31T09:34:31;13.20;99.90
40808;DHT22;26523;52.504;13.498;2023-10-31T09:36:58;13.20;99.90
40808;DHT22;26523;52.504;13.498;2023-10-31T09:39:23;13.10;99.90
40808;DHT22;26523;52.504;13.498;2023-10-31T09:41:49;13.10;99.90
40808;DHT22;26523;52.504;13.498;2023-10-31T09:44:15;13.10;99.90
40808;DHT22;26523;52.504;13.498;2023-10-31T09:46:41;13.00;99.90
40808;DHT22;26523;52.504;13.498;2023-10-31T09:49:07;13.00;99.90
40808;DHT22;26523;52.504;13.498;2023-10-31T09:51:33;13.00;99.90
40808;DHT22;26523;52.504;13.498;2023-10-31T09:54:02;13.00;99.90
40808;DHT22;26523;52.504;13.498;2023-10-31T09:56:28;13.00;99.90
40808;DHT22;26523;52.504;13.498;2023-10-31T09:59:03;13.00;99.90
40808;DHT22;26523;52.504;13.498;2023-10-31T10:01:29;13.00;99.90
40808;DHT22;26523;52.504;13.498;2023-10-31T10:03:56;13.10;99.90
40808;DHT22;26523;52.504;13.498;2023-10-31T10:06:21;13.10;99.90
40808;DHT22;26523;52.504;13.498;2023-10-31T10:08:49;13.20;99.90
40808;DHT22;26523;52.504;13.498;2023-10-31T10:11:15;13.20;99.90
40808;DHT22;26523;52.504;13.498;2023-10-31T10:13:41;13.20;99.90
40808;DHT22;26523;52.504;13.498;2023-10-31T10:16:07;13.10;99.90
40808;DHT22;26523;52.504;13.498;2023-10-31T10:18:36;13.10;99.90
40808;DHT22;26523;52.504;13.498;2023-10-31T10:21:07;13.10;99.90
40808;DHT22;26523;52.504;13.498;2023-10-31T10:23:33;13.10;99.90
40808;DHT22;26523;52.504;13.498;2023-10-31T10:26:00;13.30;99.90
40808;DHT22;26523;52.504;13.498;2023-10-31T10:28:26;13.40;99.90
40808;DHT22;26523;52.504;13.498;2023-10-31T10:30:53;13.50;99.90
40808;DHT22;26523;52.504;13.498;2023-10-31T10:33:20;13.50;99.90
40808;DHT22;26523;52.504;13.498;2023-10-31T10:35:46;13.50;99.90
40808;DHT22;26523;52.504;13.498;2023-10-31T10:38:14;13.60;99.90
40808;DHT22;26523;52.504;13.498;2023-10-31T10:40:45;13.60;99.90
40808;DHT22;26523;52.504;13.498;2023-10-31T10:43:25;13.70;99.90
40808;DHT22;26523;52.504;13.498;2023-10-31T10:45:55;13.80;99.90
40808;DHT22;26523;52.504;13.498;2023-10-31T10:48:22;13.80;99.90
40808;DHT22;26523;52.504;13.498;2023-10-31T10:50:57;14.00;99.90
40808;DHT22;26523;52.504;13.498;2023-10-31T10:53:24;14.00;99.90
40808;DHT22;26523;52.504;13.498;2023-10-31T10:55:59;14.00;99.90
40808;DHT22;26523;52.504;13.498;2023-10-31T10:58:47;14.00;99.90
40808;DHT22;26523;52.504;13.498;2023-10-31T11:01:16;14.10;99.90
40808;DHT22;26523;52.504;13.498;2023-10-31T11:03:45;14.20;99.90
40808;DHT22;26523;52.504;13.498;2023-10-31T11:06:12;14.20;99.90
40808;DHT22;26523;52.504;13.498;2023-10-31T11:08:40;14.20;99.90
40808;DHT22;26523;52.504;13.498;2023-10-31T11:11:06;14.20;99.90
40808;DHT22;26523;52.504;13.498;2023-10-31T11:13:32;14.40;99.90
40808;DHT22;26523;52.504;13.498;2023-10-31T11:16:03;14.40;99.90
40808;DHT22;26523;52.504;13.498;2023-10-31T11:18:30;14.30;99.90
40808;DHT22;26523;52.504;13.498;2023-10-31T11:20:57;14.20;99.90
40808;DHT22;26523;52.504;13.498;2023-10-31T11:23:22;14.20;99.90
40808;DHT22;26523;52.504;13.498;2023-10-31T11:25:50;14.10;99.90
40808;DHT22;26523;52.504;13.498;2023-10-31T11:28:19;14.20;99.90
40808;DHT22;26523;52.504;13.498;2023-10-31T11:30:51;14.20;99.90
40808;DHT22;26523;52.504;13.498;2023-10-31T11:33:24;14.10;99.90
40808;DHT22;26523;52.504;13.498;2023-10-31T11:35:50;14.10;99.90
40808;DHT22;26523;52.504;13.498;2023-10-31T11:38:16;14.10;99.90
40808;DHT22;26523;52.504;13.498;2023-10-31T11:40:59;14.00;99.90
40808;DHT22;26523;52.504;13.498;2023-10-31T11:43:26;14.00;99.90
40808;DHT22;26523;52.504;13.498;2023-10-31T11:46:00;13.90;99.90
40808;DHT22;26523;52.504;13.498;2023-10-31T11:48:45;13.80;99.90
40808;DHT22;26523;52.504;13.498;2023-10-31T11:51:12;13.60;99.90
40808;DHT22;26523;52.504;13.498;2023-10-31T11:53:39;13.60;99.90
40808;DHT22;26523;52.504;13.498;2023-10-31T11:56:05;13.50;99.90
40808;DHT22;26523;52.504;13.498;2023-10-31T11:58:31;13.40;99.90
40808;DHT22;26523;52.504;13.498;2023-10-31T12:01:07;13.50;99.90
40808;DHT22;26523;52.504;13.498;2023-10-31T12:03:51;13.50;99.90
40808;DHT22;26523;52.504;13.498;2023-10-31T12:06:17;13.60;99.90
40808;DHT22;26523;52.504;13.498;2023-10-31T12:08:45;13.70;99.90
40808;DHT22;26523;52.504;13.498;2023-10-31T12:11:23;13.60;99.90
40808;DHT22;26523;52.504;13.498;2023-10-31T12:13:59;13.50;99.90
40808;DHT22;26523;52.504;13.498;2023-10-31T12:16:33;13.40;99.90
40808;DHT22;26523;52.504;13.498;2023-10-31T12:19:02;13.30;99.90
40808;DHT22;26523;52.504;13.498;2023-10-31T12:21:54;13.30;99.90
40808;DHT22;26523;52.504;13.498;2023-10-31T12:24:21;13.30;99.90
40808;DHT22;26523;52.504;13.498;2023-10-31T12:26:47;13.40;99.90
40808;DHT22;26523;52.504;13.498;2023-10-31T12:29:14;13.30;99.90
40808;DHT22;26523;52.504;13.498;2023-10-31T12:31:47;13.20;99.90
40808;DHT22;26523;52.504;13.498;2023-10-31T12:34:18;13.30;99.90
40808;DHT22;26523;52.504;13.498;2023-10-31T12:36:46;13.30;99.90
40808;DHT22;26523;52.504;13.498;2023-10-31T12:39:13;13.20;99.90
40808;DHT22;26523;52.504;13.498;2023-10-31T12:41:40;13.20;99.90
40808;DHT22;26523;52.504;13.498;2023-10-31T12:44:07;13.30;99.90
40808;DHT22;26523;52.504;13.498;2023-10-31T12:46:41;13.40;99.90
40808;DHT22;26523;52.504;13.498;2023-10-31T12:49:17;13.50;99.90
40808;DHT22;26523;52.504;13.498;2023-10-31T12:52:00;13.50;99.90
40808;DHT22;26523;52.504;13.498;2023-10-31T12:56:59;13.50;99.90
40808;DHT22;26523;52.504;13.498;2023-10-31T12:59:25;13.40;99.90
40808;DHT22;26523;52.504;13.498;2023-10-31T13:01:50;13.30;99.90
40808;DHT22;26523;52.504;13.498;2023-10-31T13:04:27;13.30;99.90
40808;DHT22;26523;52.504;13.498;2023-10-31T13:07:02;13.40;99.90
40808;DHT22;26523;52.504;13.498;2023-10-31T13:09:32;13.30;99.90
40808;DHT22;26523;52.504;13.498;2023-10-31T13:12:02;13.30;99.90
40808;DHT22;26523;52.504;13.498;2023-10-31T13:14:29;13.30;99.90
40808;DHT22;26523;52.504;13.498;2023-10-31T13:16:54;13.20;99.90
40808;DHT22;26523;52.504;13.498;2023-10-31T13:19:20;13.10;99.90
40808;DHT22;26523;52.504;13.498;2023-10-31T13:21:46;13.20;99.90
40808;DHT22;26523;52.504;13.498;2023-10-31T13:24:11;13.20;99.90
40808;DHT22;26523;52.504;13.498;2023-10-31T13:26:37;13.10;99.90
40808;DHT22;26523;52.504;13.498;2023-10-31T13:29:03;13.10;99.90
40808;DHT22;26523;52.504;13.498;2023-10-31T13:31:29;13.00;99.90
40808;DHT22;26523;52.504;13.498;2023-10-31T13:33:54;13.00;99.90
40808;DHT22;26523;52.504;13.498;2023-10-31T13:36:20;13.10;99.90
40808;DHT22;26523;52.504;13.498;2023-10-31T13:38:46;13.10;99.90
40808;DHT22;26523;52.504;13.498;2023-10-31T13:41:12;13.10;99.90
40808;DHT22;26523;52.504;13.498;2023-10-31T13:43:38;13.10;99.90
40808;DHT22;26523;52.504;13.498;2023-10-31T13:46:04;13.10;99.90
40808;DHT22;26523;52.504;13.498;2023-10-31T13:48:30;13.10;99.90
40808;DHT22;26523;52.504;13.498;2023-10-31T13:50:55;13.10;99.90
40808;DHT22;26523;52.504;13.498;2023-10-31T13:53:21;13.10;99.90
40808;DHT22;26523;52.504;13.498;2023-10-31T13:55:47;13.10;99.90
40808;DHT22;26523;52.504;13.498;2023-10-31T13:58:14;13.10;99.90
40808;DHT22;26523;52.504;13.498;2023-10-31T14:00:40;13.00;99.90
40808;DHT22;26523;52.504;13.498;2023-10-31T14:03:05;12.90;99.90
40808;DHT22;26523;52.504;13.498;2023-10-31T14:05:31;12.90;99.90
40808;DHT22;26523;52.504;13.498;2023-10-31T14:07:57;12.80;99.90
40808;DHT22;26523;52.504;13.498;2023-10-31T14:10:23;12.80;99.90
40808;DHT22;26523;52.504;13.498;2023-10-31T14:12:49;12.70;99.90
40808;DHT22;26523;52.504;13.498;2023-10-31T14:15:15;12.60;99.90
40808;DHT22;26523;52.504;13.498;2023-10-31T14:17:41;12.60;99.90
40808;DHT22;26523;52.504;13.498;2023-10-31T14:20:07;12.50;99.90
40808;DHT22;26523;52.504;13.498;2023-10-31T14:22:33;12.40;99.90
40808;DHT22;26523;52.504;13.498;2023-10-31T14:24:59;12.40;99.90
40808;DHT22;26523;52.504;13.498;2023-10-31T14:27:24;12.40;99.90
40808;DHT22;26523;52.504;13.498;2023-10-31T14:29:50;12.40;99.90
40808;DHT22;26523;52.504;13.498;2023-10-31T14:32:17;12.40;99.90
40808;DHT22;26523;52.504;13.498;2023-10-31T14:34:43;12.30;99.90
40808;DHT22;26523;52.504;13.498;2023-10-31T14:37:09;12.20;99.90
40808;DHT22;26523;52.504;13.498;2023-10-31T14:39:34;12.10;99.90
40808;DHT22;26523;52.504;13.498;2023-10-31T14:42:00;12.00;99.90
40808;DHT22;26523;52.504;13.498;2023-10-31T14:44:26;11.80;99.90
40808;DHT22;26523;52.504;13.498;2023-10-31T14:46:51;11.70;99.90
40808;DHT22;26523;52.504;13.498;2023-10-31T14:49:19;11.50;99.90
40808;DHT22;26523;52.504;13.498;2023-10-31T14:51:44;11.40;99.90
40808;DHT22;26523;52.504;13.498;2023-10-31T14:54:10;11.30;99.90
40808;DHT22;26523;52.504;13.498;2023-10-31T14:56:36;11.30;99.90
40808;DHT22;26523;52.504;13.498;2023-10-31T14:59:03;11.30;99.90
40808;DHT22;26523;52.504;13.498;2023-10-31T15:01:29;11.20;99.90
40808;DHT22;26523;52.504;13.498;2023-10-31T15:03:54;11.20;99.90
40808;DHT22;26523;52.504;13.498;2023-10-31T15:06:23;11.20;99.90
40808;DHT22;26523;52.504;13.498;2023-10-31T15:08:48;11.20;99.90
40808;DHT22;26523;52.504;13.498;2023-10-31T15:11:15;11.20;99.90
40808;DHT22;26523;52.504;13.498;2023-10-31T15:13:42;11.20;99.90
40808;DHT22;26523;52.504;13.498;2023-10-31T15:16:08;11.10;99.90